sensor_id;sensor_type;location;lat;lon;timestamp;temperature;humidity
27781;DHT22;15167;1.318;103.762;2023-03-30T00:00:01;26.60;66.60
27781;DHT22;15167;1.318;103.762;2023-03-30T00:02:39;26.60;60.00
27781;DHT22;15167;1.318;103.762;2023-03-30T00:05:08;26.70;49.10
27781;DHT22;15167;1.318;103.762;2023-03-30T00:07:35;26.60;45.30
27781;DHT22;15167;1.318;103.762;2023-03-30T00:10:03;26.60;45.20
27781;DHT22;15167;1.318;103.762;2023-03-30T00:12:31;26.50;45.20
27781;DHT22;15167;1.318;103.762;2023-03-30T00:14:57;26.50;47.70
27781;DHT22;15167;1.318;103.762;2023-03-30T00:17:23;26.50;47.90
27781;DHT22;15167;1.318;103.762;2023-03-30T00:19:50;26.50;45.10
27781;DHT22;15167;1.318;103.762;2023-03-30T00:22:16;26.60;39.40
27781;DHT22;15167;1.318;103.762;2023-03-30T00:24:42;26.70;31.90
27781;DHT22;15167;1.318;103.762;2023-03-30T00:27:08;26.70;27.40
27781;DHT22;15167;1.318;103.762;2023-03-30T00:29:35;26.80;25.00
27781;DHT22;15167;1.318;103.762;2023-03-30T00:32:01;26.80;15.40
27781;DHT22;15167;1.318;103.762;2023-03-30T00:34:28;26.80;15.70
27781;DHT22;15167;1.318;103.762;2023-03-30T00:36:54;27.00;13.70
27781;DHT22;15167;1.318;103.762;2023-03-30T00:39:21;27.00;12.60
27781;DHT22;15167;1.318;103.762;2023-03-30T00:41:47;27.10;8.70
27781;DHT22;15167;1.318;103.762;2023-03-30T00:46:58;27.20;2.90
27781;DHT22;15167;1.318;103.762;2023-03-30T00:49:24;27.40;1.00
27781;DHT22;15167;1.318;103.762;2023-03-30T00:51:51;27.40;1.00
27781;DHT22;15167;1.318;103.762;2023-03-30T00:54:17;27.50;1.00
27781;DHT22;15167;1.318;103.762;2023-03-30T00:56:44;27.60;1.00
27781;DHT22;15167;1.318;103.762;2023-03-30T00:59:10;27.60;1.00
27781;DHT22;15167;1.318;103.762;2023-03-30T01:01:37;27.50;1.00
27781;DHT22;15167;1.318;103.762;2023-03-30T01:04:05;27.40;1.00
27781;DHT22;15167;1.318;103.762;2023-03-30T01:06:32;27.50;1.00
27781;DHT22;15167;1.318;103.762;2023-03-30T01:08:59;27.60;1.00
27781;DHT22;15167;1.318;103.762;2023-03-30T01:11:26;27.70;1.00
27781;DHT22;15167;1.318;103.762;2023-03-30T01:13:54;27.80;1.00
27781;DHT22;15167;1.318;103.762;2023-03-30T01:27:00;28.10;1.00
27781;DHT22;15167;1.318;103.762;2023-03-30T01:29:46;28.30;1.00
27781;DHT22;15167;1.318;103.762;2023-03-30T01:34:56;28.20;1.00
27781;DHT22;15167;1.318;103.762;2023-03-30T01:37:29;28.30;1.00
27781;DHT22;15167;1.318;103.762;2023-03-30T01:40:13;28.40;1.00
27781;DHT22;15167;1.318;103.762;2023-03-30T01:42:44;28.50;1.00
27781;DHT22;15167;1.318;103.762;2023-03-30T01:45:21;28.50;1.00
27781;DHT22;15167;1.318;103.762;2023-03-30T01:50:23;28.40;1.00
27781;DHT22;15167;1.318;103.762;2023-03-30T01:55:34;28.60;1.00
27781;DHT22;15167;1.318;103.762;2023-03-30T02:00:30;28.60;1.00
27781;DHT22;15167;1.318;103.762;2023-03-30T02:03:05;28.50;1.00
27781;DHT22;15167;1.318;103.762;2023-03-30T02:05:33;28.60;1.00
27781;DHT22;15167;1.318;103.762;2023-03-30T02:08:02;28.60;1.00
27781;DHT22;15167;1.318;103.762;2023-03-30T02:10:30;28.60;1.00
27781;DHT22;15167;1.318;103.762;2023-03-30T02:12:57;28.50;1.00
27781;DHT22;15167;1.318;103.762;2023-03-30T02:15:24;28.50;1.00
27781;DHT22;15167;1.318;103.762;2023-03-30T02:17:51;28.50;1.00
27781;DHT22;15167;1.318;103.762;2023-03-30T02:20:17;28.50;1.00
27781;DHT22;15167;1.318;103.762;2023-03-30T02:22:44;28.50;1.00
27781;DHT22;15167;1.318;103.762;2023-03-30T02:25:11;28.60;1.00
27781;DHT22;15167;1.318;103.762;2023-03-30T02:27:38;28.80;1.00
27781;DHT22;15167;1.318;103.762;2023-03-30T02:30:07;28.80;1.00
27781;DHT22;15167;1.318;103.762;2023-03-30T02:32:41;28.80;1.00
27781;DHT22;15167;1.318;103.762;2023-03-30T02:45:38;28.70;1.00
27781;DHT22;15167;1.318;103.762;2023-03-30T02:53:41;28.90;1.00
27781;DHT22;15167;1.318;103.762;2023-03-30T02:58:43;29.10;1.00
27781;DHT22;15167;1.318;103.762;2023-03-30T03:01:16;29.20;1.00
27781;DHT22;15167;1.318;103.762;2023-03-30T03:03:46;29.20;1.00
27781;DHT22;15167;1.318;103.762;2023-03-30T03:06:13;29.10;1.00
27781;DHT22;15167;1.318;103.762;2023-03-30T03:08:41;28.90;1.00
27781;DHT22;15167;1.318;103.762;2023-03-30T03:11:08;28.80;1.00
27781;DHT22;15167;1.318;103.762;2023-03-30T03:13:35;29.00;1.00
27781;DHT22;15167;1.318;103.762;2023-03-30T03:16:02;29.00;1.00
27781;DHT22;15167;1.318;103.762;2023-03-30T03:18:28;29.10;1.00
27781;DHT22;15167;1.318;103.762;2023-03-30T03:20:55;29.10;99.90
27781;DHT22;15167;1.318;103.762;2023-03-30T03:23:22;29.00;99.90
27781;DHT22;15167;1.318;103.762;2023-03-30T03:25:48;29.20;99.90
27781;DHT22;15167;1.318;103.762;2023-03-30T03:28:14;29.20;99.90
27781;DHT22;15167;1.318;103.762;2023-03-30T03:30:40;29.20;99.90
27781;DHT22;15167;1.318;103.762;2023-03-30T03:33:07;29.40;99.90
27781;DHT22;15167;1.318;103.762;2023-03-30T03:35:33;29.50;99.90
27781;DHT22;15167;1.318;103.762;2023-03-30T03:38:04;29.70;99.90
27781;DHT22;15167;1.318;103.762;2023-03-30T03:40:31;29.70;99.90
27781;DHT22;15167;1.318;103.762;2023-03-30T03:42:57;29.70;99.90
27781;DHT22;15167;1.318;103.762;2023-03-30T03:45:23;29.90;99.90
27781;DHT22;15167;1.318;103.762;2023-03-30T03:47:50;29.80;99.90
27781;DHT22;15167;1.318;103.762;2023-03-30T03:50:16;29.90;99.90
27781;DHT22;15167;1.318;103.762;2023-03-30T03:52:43;29.90;99.90
27781;DHT22;15167;1.318;103.762;2023-03-30T03:55:09;30.10;99.90
27781;DHT22;15167;1.318;103.762;2023-03-30T03:57:36;30.30;99.90
27781;DHT22;15167;1.318;103.762;2023-03-30T04:00:02;30.60;99.90
27781;DHT22;15167;1.318;103.762;2023-03-30T04:02:28;30.60;99.90
27781;DHT22;15167;1.318;103.762;2023-03-30T04:04:54;30.60;99.90
27781;DHT22;15167;1.318;103.762;2023-03-30T04:07:22;30.50;99.90
27781;DHT22;15167;1.318;103.762;2023-03-30T04:09:50;30.50;99.90
27781;DHT22;15167;1.318;103.762;2023-03-30T04:12:16;30.30;99.90
27781;DHT22;15167;1.318;103.762;2023-03-30T04:14:42;30.30;99.90
27781;DHT22;15167;1.318;103.762;2023-03-30T04:17:08;30.30;99.90
27781;DHT22;15167;1.318;103.762;2023-03-30T04:19:34;30.10;99.90
27781;DHT22;15167;1.318;103.762;2023-03-30T04:22:00;30.20;99.90
27781;DHT22;15167;1.318;103.762;2023-03-30T04:24:26;30.30;99.90
27781;DHT22;15167;1.318;103.762;2023-03-30T04:26:56;30.50;99.90
27781;DHT22;15167;1.318;103.762;2023-03-30T04:29:22;30.60;99.90
27781;DHT22;15167;1.318;103.762;2023-03-30T04:31:48;30.50;90.40
27781;DHT22;15167;1.318;103.762;2023-03-30T04:34:16;30.40;56.10
27781;DHT22;15167;1.318;103.762;2023-03-30T04:36:46;30.30;87.10
27781;DHT22;15167;1.318;103.762;2023-03-30T04:39:12;30.40;39.60
27781;DHT22;15167;1.318;103.762;2023-03-30T04:41:43;30.50;1.00
27781;DHT22;15167;1.318;103.762;2023-03-30T04:44:10;30.50;1.00
27781;DHT22;15167;1.318;103.762;2023-03-30T04:46:36;30.50;1.00
27781;DHT22;15167;1.318;103.762;2023-03-30T04:49:02;30.70;1.00
27781;DHT22;15167;1.318;103.762;2023-03-30T04:51:29;30.70;1.00
27781;DHT22;15167;1.318;103.762;2023-03-30T04:53:56;30.90;99.90
27781;DHT22;15167;1.318;103.762;2023-03-30T04:56:22;31.00;99.90
27781;DHT22;15167;1.318;103.762;2023-03-30T04:58:48;31.20;99.90
27781;DHT22;15167;1.318;103.762;2023-03-30T05:01:14;31.50;99.90
27781;DHT22;15167;1.318;103.762;2023-03-30T05:03:40;31.40;99.90
27781;DHT22;15167;1.318;103.762;2023-03-30T05:06:06;31.30;1.00
27781;DHT22;15167;1.318;103.762;2023-03-30T05:08:32;31.20;1.00
27781;DHT22;15167;1.318;103.762;2023-03-30T05:11:00;31.20;99.90
27781;DHT22;15167;1.318;103.762;2023-03-30T05:13:27;31.40;99.90
27781;DHT22;15167;1.318;103.762;2023-03-30T05:15:54;31.50;99.90
27781;DHT22;15167;1.318;103.762;2023-03-30T05:18:20;31.60;99.90
27781;DHT22;15167;1.318;103.762;2023-03-30T05:20:46;31.50;99.90
27781;DHT22;15167;1.318;103.762;2023-03-30T05:23:13;31.50;99.90
27781;DHT22;15167;1.318;103.762;2023-03-30T05:25:42;31.60;99.90
27781;DHT22;15167;1.318;103.762;2023-03-30T05:28:13;31.80;1.00
27781;DHT22;15167;1.318;103.762;2023-03-30T05:30:42;32.00;99.90
27781;DHT22;15167;1.318;103.762;2023-03-30T05:33:08;32.10;51.30
27781;DHT22;15167;1.318;103.762;2023-03-30T05:35:38;32.40;13.90
27781;DHT22;15167;1.318;103.762;2023-03-30T05:38:04;32.60;99.90
27781;DHT22;15167;1.318;103.762;2023-03-30T05:40:31;32.50;1.00
27781;DHT22;15167;1.318;103.762;2023-03-30T05:42:57;32.50;99.90
27781;DHT22;15167;1.318;103.762;2023-03-30T05:45:23;32.40;98.30
27781;DHT22;15167;1.318;103.762;2023-03-30T05:47:51;32.40;99.90
27781;DHT22;15167;1.318;103.762;2023-03-30T05:50:17;32.40;99.90
27781;DHT22;15167;1.318;103.762;2023-03-30T05:52:43;32.30;99.90
27781;DHT22;15167;1.318;103.762;2023-03-30T05:55:09;32.30;99.90
27781;DHT22;15167;1.318;103.762;2023-03-30T05:57:36;32.40;99.90
27781;DHT22;15167;1.318;103.762;2023-03-30T06:00:03;32.50;1.00
27781;DHT22;15167;1.318;103.762;2023-03-30T06:02:31;32.50;99.90
27781;DHT22;15167;1.318;103.762;2023-03-30T06:04:57;32.70;70.20
27781;DHT22;15167;1.318;103.762;2023-03-30T06:07:26;32.80;96.80
27781;DHT22;15167;1.318;103.762;2023-03-30T06:09:52;33.00;99.90
27781;DHT22;15167;1.318;103.762;2023-03-30T06:12:18;32.80;99.90
27781;DHT22;15167;1.318;103.762;2023-03-30T06:14:44;32.50;1.00
27781;DHT22;15167;1.318;103.762;2023-03-30T06:17:11;32.50;1.00
27781;DHT22;15167;1.318;103.762;2023-03-30T06:19:38;32.70;66.30
27781;DHT22;15167;1.318;103.762;2023-03-30T06:22:04;32.80;99.90
27781;DHT22;15167;1.318;103.762;2023-03-30T06:24:31;32.40;99.90
27781;DHT22;15167;1.318;103.762;2023-03-30T06:26:57;32.50;1.00
27781;DHT22;15167;1.318;103.762;2023-03-30T06:29:23;32.50;1.00
27781;DHT22;15167;1.318;103.762;2023-03-30T06:31:50;32.40;99.90
27781;DHT22;15167;1.318;103.762;2023-03-30T06:34:16;32.40;99.90
27781;DHT22;15167;1.318;103.762;2023-03-30T06:36:42;32.20;99.90
27781;DHT22;15167;1.318;103.762;2023-03-30T06:39:10;32.10;99.90
27781;DHT22;15167;1.318;103.762;2023-03-30T06:41:36;32.10;99.90
27781;DHT22;15167;1.318;103.762;2023-03-30T06:44:02;31.80;1.00
27781;DHT22;15167;1.318;103.762;2023-03-30T06:46:29;31.40;99.90
27781;DHT22;15167;1.318;103.762;2023-03-30T06:48:55;30.90;99.90
27781;DHT22;15167;1.318;103.762;2023-03-30T06:51:21;30.80;99.90
27781;DHT22;15167;1.318;103.762;2023-03-30T06:53:47;30.60;1.00
27781;DHT22;15167;1.318;103.762;2023-03-30T06:56:13;30.30;1.00
27781;DHT22;15167;1.318;103.762;2023-03-30T06:58:40;28.80;1.00
27781;DHT22;15167;1.318;103.762;2023-03-30T07:01:12;28.50;21.60
27781;DHT22;15167;1.318;103.762;2023-03-30T07:03:38;28.70;79.80
27781;DHT22;15167;1.318;103.762;2023-03-30T07:06:06;29.10;88.10
27781;DHT22;15167;1.318;103.762;2023-03-30T07:08:32;29.50;97.50
27781;DHT22;15167;1.318;103.762;2023-03-30T07:11:00;29.80;99.90
27781;DHT22;15167;1.318;103.762;2023-03-30T07:13:26;30.00;99.90
27781;DHT22;15167;1.318;103.762;2023-03-30T07:15:53;30.10;91.20
27781;DHT22;15167;1.318;103.762;2023-03-30T07:18:19;30.30;72.90
27781;DHT22;15167;1.318;103.762;2023-03-30T07:20:45;30.40;86.40
27781;DHT22;15167;1.318;103.762;2023-03-30T07:23:11;30.40;90.20
27781;DHT22;15167;1.318;103.762;2023-03-30T07:25:38;30.40;80.90
27781;DHT22;15167;1.318;103.762;2023-03-30T07:28:04;30.40;85.30
27781;DHT22;15167;1.318;103.762;2023-03-30T07:30:34;30.50;94.00
27781;DHT22;15167;1.318;103.762;2023-03-30T07:33:00;30.50;99.90
27781;DHT22;15167;1.318;103.762;2023-03-30T07:35:27;30.40;99.90
27781;DHT22;15167;1.318;103.762;2023-03-30T07:37:53;30.20;99.90
27781;DHT22;15167;1.318;103.762;2023-03-30T07:40:19;30.00;99.90
27781;DHT22;15167;1.318;103.762;2023-03-30T07:42:46;29.90;99.90
27781;DHT22;15167;1.318;103.762;2023-03-30T07:45:12;29.80;99.90
27781;DHT22;15167;1.318;103.762;2023-03-30T07:47:39;29.70;99.90
27781;DHT22;15167;1.318;103.762;2023-03-30T07:50:05;29.60;99.90
27781;DHT22;15167;1.318;103.762;2023-03-30T07:52:31;29.50;99.90
27781;DHT22;15167;1.318;103.762;2023-03-30T07:54:57;29.60;99.90
27781;DHT22;15167;1.318;103.762;2023-03-30T07:57:23;29.60;99.90
27781;DHT22;15167;1.318;103.762;2023-03-30T07:59:50;29.90;99.90
27781;DHT22;15167;1.318;103.762;2023-03-30T08:02:16;30.20;99.90
27781;DHT22;15167;1.318;103.762;2023-03-30T08:04:43;30.40;99.90
27781;DHT22;15167;1.318;103.762;2023-03-30T08:07:09;30.40;99.90
27781;DHT22;15167;1.318;103.762;2023-03-30T08:09:36;30.30;99.90
27781;DHT22;15167;1.318;103.762;2023-03-30T08:12:02;30.40;97.50
27781;DHT22;15167;1.318;103.762;2023-03-30T08:14:28;30.60;88.90
27781;DHT22;15167;1.318;103.762;2023-03-30T08:16:55;30.70;58.00
27781;DHT22;15167;1.318;103.762;2023-03-30T08:19:22;30.70;32.10
27781;DHT22;15167;1.318;103.762;2023-03-30T08:21:49;30.60;54.50
27781;DHT22;15167;1.318;103.762;2023-03-30T08:24:15;30.20;96.80
27781;DHT22;15167;1.318;103.762;2023-03-30T08:26:41;30.10;99.90
27781;DHT22;15167;1.318;103.762;2023-03-30T08:29:08;30.10;99.90
27781;DHT22;15167;1.318;103.762;2023-03-30T08:31:34;30.20;99.90
27781;DHT22;15167;1.318;103.762;2023-03-30T08:34:02;30.20;99.90
27781;DHT22;15167;1.318;103.762;2023-03-30T08:36:29;30.00;99.90
27781;DHT22;15167;1.318;103.762;2023-03-30T08:38:55;29.60;99.90
27781;DHT22;15167;1.318;103.762;2023-03-30T08:43:57;29.70;99.90
27781;DHT22;15167;1.318;103.762;2023-03-30T08:46:25;29.90;99.90
27781;DHT22;15167;1.318;103.762;2023-03-30T08:48:51;30.00;99.90
27781;DHT22;15167;1.318;103.762;2023-03-30T08:51:22;30.20;99.90
27781;DHT22;15167;1.318;103.762;2023-03-30T08:53:54;30.30;99.90
27781;DHT22;15167;1.318;103.762;2023-03-30T08:56:22;30.30;99.90
27781;DHT22;15167;1.318;103.762;2023-03-30T08:58:54;30.20;99.90
27781;DHT22;15167;1.318;103.762;2023-03-30T09:01:33;30.10;99.90
27781;DHT22;15167;1.318;103.762;2023-03-30T09:09:03;29.80;99.90
27781;DHT22;15167;1.318;103.762;2023-03-30T09:11:31;29.70;99.90
27781;DHT22;15167;1.318;103.762;2023-03-30T09:13:58;28.70;99.90
27781;DHT22;15167;1.318;103.762;2023-03-30T09:16:32;28.10;99.90
27781;DHT22;15167;1.318;103.762;2023-03-30T09:19:00;27.40;99.90
27781;DHT22;15167;1.318;103.762;2023-03-30T09:21:28;27.00;99.90
27781;DHT22;15167;1.318;103.762;2023-03-30T09:23:56;26.80;99.90
27781;DHT22;15167;1.318;103.762;2023-03-30T09:29:25;25.80;1.00
27781;DHT22;15167;1.318;103.762;2023-03-30T09:37:04;25.40;96.50
27781;DHT22;15167;1.318;103.762;2023-03-30T09:39:33;25.50;99.90
27781;DHT22;15167;1.318;103.762;2023-03-30T09:44:36;25.90;99.90
27781;DHT22;15167;1.318;103.762;2023-03-30T09:47:08;25.90;99.90
27781;DHT22;15167;1.318;103.762;2023-03-30T09:49:41;25.60;99.90
27781;DHT22;15167;1.318;103.762;2023-03-30T09:52:14;25.10;99.90
27781;DHT22;15167;1.318;103.762;2023-03-30T09:54:43;25.00;99.90
27781;DHT22;15167;1.318;103.762;2023-03-30T09:59:51;25.20;99.90
27781;DHT22;15167;1.318;103.762;2023-03-30T10:02:21;25.40;99.90
27781;DHT22;15167;1.318;103.762;2023-03-30T10:07:36;25.70;99.90
27781;DHT22;15167;1.318;103.762;2023-03-30T10:10:13;25.80;99.90
27781;DHT22;15167;1.318;103.762;2023-03-30T10:12:40;26.00;99.90
27781;DHT22;15167;1.318;103.762;2023-03-30T10:15:09;26.00;99.90
27781;DHT22;15167;1.318;103.762;2023-03-30T10:17:39;26.10;99.90
27781;DHT22;15167;1.318;103.762;2023-03-30T10:20:13;26.10;99.90
27781;DHT22;15167;1.318;103.762;2023-03-30T10:22:51;26.10;99.90
27781;DHT22;15167;1.318;103.762;2023-03-30T10:25:19;26.10;93.90
27781;DHT22;15167;1.318;103.762;2023-03-30T10:27:47;26.30;91.20
27781;DHT22;15167;1.318;103.762;2023-03-30T10:30:16;26.30;92.70
27781;DHT22;15167;1.318;103.762;2023-03-30T10:32:45;26.00;82.10
27781;DHT22;15167;1.318;103.762;2023-03-30T10:35:13;25.30;96.40
27781;DHT22;15167;1.318;103.762;2023-03-30T10:37:43;25.00;99.90
27781;DHT22;15167;1.318;103.762;2023-03-30T10:40:23;24.70;99.90
27781;DHT22;15167;1.318;103.762;2023-03-30T10:42:52;24.60;99.90
27781;DHT22;15167;1.318;103.762;2023-03-30T10:45:21;24.50;99.90
27781;DHT22;15167;1.318;103.762;2023-03-30T10:48:00;24.40;99.90
27781;DHT22;15167;1.318;103.762;2023-03-30T10:58:14;24.00;99.90
27781;DHT22;15167;1.318;103.762;2023-03-30T11:03:20;23.50;99.90
27781;DHT22;15167;1.318;103.762;2023-03-30T11:05:50;23.50;99.90
27781;DHT22;15167;1.318;103.762;2023-03-30T11:08:23;23.50;99.90
27781;DHT22;15167;1.318;103.762;2023-03-30T11:10:52;23.70;99.90
27781;DHT22;15167;1.318;103.762;2023-03-30T11:15:49;24.10;99.90
27781;DHT22;15167;1.318;103.762;2023-03-30T11:21:12;24.50;99.90
27781;DHT22;15167;1.318;103.762;2023-03-30T11:26:14;24.70;99.40
27781;DHT22;15167;1.318;103.762;2023-03-30T11:36:57;24.70;76.20
27781;DHT22;15167;1.318;103.762;2023-03-30T11:39:28;24.60;84.80
27781;DHT22;15167;1.318;103.762;2023-03-30T11:44:39;24.70;69.60
27781;DHT22;15167;1.318;103.762;2023-03-30T11:55:24;25.10;26.00
27781;DHT22;15167;1.318;103.762;2023-03-30T12:03:04;25.20;1.00
27781;DHT22;15167;1.318;103.762;2023-03-30T12:05:34;25.20;1.00
27781;DHT22;15167;1.318;103.762;2023-03-30T12:10:32;25.30;1.00
27781;DHT22;15167;1.318;103.762;2023-03-30T12:13:01;25.40;1.00
27781;DHT22;15167;1.318;103.762;2023-03-30T12:18:02;25.50;1.00
27781;DHT22;15167;1.318;103.762;2023-03-30T12:25:49;25.40;1.00
27781;DHT22;15167;1.318;103.762;2023-03-30T12:28:22;25.50;1.00
27781;DHT22;15167;1.318;103.762;2023-03-30T12:30:53;25.40;1.00
27781;DHT22;15167;1.318;103.762;2023-03-30T12:36:02;25.50;1.00
27781;DHT22;15167;1.318;103.762;2023-03-30T12:38:35;25.50;1.00
27781;DHT22;15167;1.318;103.762;2023-03-30T12:41:10;25.50;1.00
27781;DHT22;15167;1.318;103.762;2023-03-30T12:46:11;25.60;1.00
27781;DHT22;15167;1.318;103.762;2023-03-30T12:48:48;25.50;1.00
27781;DHT22;15167;1.318;103.762;2023-03-30T12:51:27;25.40;1.00
27781;DHT22;15167;1.318;103.762;2023-03-30T12:56:45;25.20;1.00
27781;DHT22;15167;1.318;103.762;2023-03-30T13:04:23;25.30;1.00
27781;DHT22;15167;1.318;103.762;2023-03-30T13:06:55;25.40;1.00
27781;DHT22;15167;1.318;103.762;2023-03-30T13:14:15;25.60;1.00
27781;DHT22;15167;1.318;103.762;2023-03-30T13:24:56;25.70;1.00
27781;DHT22;15167;1.318;103.762;2023-03-30T13:27:25;25.70;1.00
27781;DHT22;15167;1.318;103.762;2023-03-30T13:44:48;26.00;1.00
27781;DHT22;15167;1.318;103.762;2023-03-30T13:50:44;26.00;1.00
27781;DHT22;15167;1.318;103.762;2023-03-30T13:52:52;26.00;1.00
27781;DHT22;15167;1.318;103.762;2023-03-30T13:57:50;26.10;1.00
27781;DHT22;15167;1.318;103.762;2023-03-30T14:02:45;26.00;1.00
27781;DHT22;15167;1.318;103.762;2023-03-30T14:05:21;26.10;1.00
27781;DHT22;15167;1.318;103.762;2023-03-30T14:07:48;26.10;1.00
27781;DHT22;15167;1.318;103.762;2023-03-30T14:10:19;26.10;1.00
27781;DHT22;15167;1.318;103.762;2023-03-30T14:12:51;26.10;1.00
27781;DHT22;15167;1.318;103.762;2023-03-30T14:17:45;26.20;1.00
27781;DHT22;15167;1.318;103.762;2023-03-30T14:20:18;26.20;1.00
27781;DHT22;15167;1.318;103.762;2023-03-30T14:22:46;26.20;1.00
27781;DHT22;15167;1.318;103.762;2023-03-30T14:25:25;26.20;1.00
27781;DHT22;15167;1.318;103.762;2023-03-30T14:27:51;26.20;1.00
27781;DHT22;15167;1.318;103.762;2023-03-30T14:30:18;26.20;1.00
27781;DHT22;15167;1.318;103.762;2023-03-30T14:32:46;26.20;1.00
27781;DHT22;15167;1.318;103.762;2023-03-30T14:35:15;26.20;1.00
27781;DHT22;15167;1.318;103.762;2023-03-30T14:37:43;26.30;1.00
27781;DHT22;15167;1.318;103.762;2023-03-30T14:40:13;26.30;1.00
27781;DHT22;15167;1.318;103.762;2023-03-30T14:42:40;26.30;1.00
27781;DHT22;15167;1.318;103.762;2023-03-30T14:45:14;26.30;1.00
27781;DHT22;15167;1.318;103.762;2023-03-30T14:47:41;26.30;1.00
27781;DHT22;15167;1.318;103.762;2023-03-30T14:50:07;26.30;1.00
27781;DHT22;15167;1.318;103.762;2023-03-30T14:52:37;26.30;1.00
27781;DHT22;15167;1.318;103.762;2023-03-30T14:55:04;26.30;1.00
27781;DHT22;15167;1.318;103.762;2023-03-30T14:57:31;26.20;1.00
27781;DHT22;15167;1.318;103.762;2023-03-30T14:59:59;26.20;1.00
27781;DHT22;15167;1.318;103.762;2023-03-30T15:02:29;26.20;1.00
27781;DHT22;15167;1.318;103.762;2023-03-30T15:04:57;26.30;1.00
27781;DHT22;15167;1.318;103.762;2023-03-30T15:07:28;26.30;1.00
27781;DHT22;15167;1.318;103.762;2023-03-30T15:09:56;26.30;1.00
27781;DHT22;15167;1.318;103.762;2023-03-30T15:12:25;26.30;1.00
27781;DHT22;15167;1.318;103.762;2023-03-30T15:14:56;26.30;1.00
27781;DHT22;15167;1.318;103.762;2023-03-30T15:17:24;26.30;1.00
27781;DHT22;15167;1.318;103.762;2023-03-30T15:19:51;26.20;1.00
27781;DHT22;15167;1.318;103.762;2023-03-30T15:24:47;26.20;1.00
27781;DHT22;15167;1.318;103.762;2023-03-30T15:27:14;26.20;1.00
27781;DHT22;15167;1.318;103.762;2023-03-30T15:29:41;26.20;1.00
27781;DHT22;15167;1.318;103.762;2023-03-30T15:32:14;26.20;1.00
27781;DHT22;15167;1.318;103.762;2023-03-30T15:35:04;26.20;1.00
27781;DHT22;15167;1.318;103.762;2023-03-30T15:37:27;26.10;1.00
27781;DHT22;15167;1.318;103.762;2023-03-30T15:39:53;26.10;1.00
27781;DHT22;15167;1.318;103.762;2023-03-30T15:42:23;26.10;1.00
27781;DHT22;15167;1.318;103.762;2023-03-30T15:44:58;26.10;1.00
27781;DHT22;15167;1.318;103.762;2023-03-30T15:47:25;26.10;1.00
27781;DHT22;15167;1.318;103.762;2023-03-30T15:49:51;26.10;1.00
27781;DHT22;15167;1.318;103.762;2023-03-30T15:54:47;26.10;1.00
27781;DHT22;15167;1.318;103.762;2023-03-30T15:57:17;26.10;1.00
27781;DHT22;15167;1.318;103.762;2023-03-30T15:59:49;26.10;1.00
27781;DHT22;15167;1.318;103.762;2023-03-30T16:02:20;26.00;1.00
27781;DHT22;15167;1.318;103.762;2023-03-30T16:04:46;26.00;1.00
27781;DHT22;15167;1.318;103.762;2023-03-30T16:09:40;26.10;1.00
27781;DHT22;15167;1.318;103.762;2023-03-30T16:12:07;26.10;1.00
27781;DHT22;15167;1.318;103.762;2023-03-30T16:14:34;26.00;2.30
27781;DHT22;15167;1.318;103.762;2023-03-30T16:17:01;26.10;4.60
27781;DHT22;15167;1.318;103.762;2023-03-30T16:19:27;26.10;4.40
27781;DHT22;15167;1.318;103.762;2023-03-30T16:21:53;26.10;1.00
27781;DHT22;15167;1.318;103.762;2023-03-30T16:24:19;26.10;1.00
27781;DHT22;15167;1.318;103.762;2023-03-30T16:26:45;26.10;1.00
27781;DHT22;15167;1.318;103.762;2023-03-30T16:29:19;26.10;2.80
27781;DHT22;15167;1.318;103.762;2023-03-30T16:31:46;26.10;2.60
27781;DHT22;15167;1.318;103.762;2023-03-30T16:34:12;26.00;1.00
27781;DHT22;15167;1.318;103.762;2023-03-30T16:36:38;26.10;1.00
27781;DHT22;15167;1.318;103.762;2023-03-30T16:39:17;26.10;1.00
27781;DHT22;15167;1.318;103.762;2023-03-30T16:41:45;26.10;1.00
27781;DHT22;15167;1.318;103.762;2023-03-30T16:44:12;26.10;1.00
27781;DHT22;15167;1.318;103.762;2023-03-30T16:46:39;26.20;1.00
27781;DHT22;15167;1.318;103.762;2023-03-30T16:49:09;26.20;1.00
27781;DHT22;15167;1.318;103.762;2023-03-30T16:51:36;26.00;1.00
27781;DHT22;15167;1.318;103.762;2023-03-30T16:54:02;26.20;1.00
27781;DHT22;15167;1.318;103.762;2023-03-30T16:56:28;26.20;1.00
27781;DHT22;15167;1.318;103.762;2023-03-30T16:58:54;26.20;1.00
27781;DHT22;15167;1.318;103.762;2023-03-30T17:01:25;26.20;1.00
27781;DHT22;15167;1.318;103.762;2023-03-30T17:03:52;26.10;1.00
27781;DHT22;15167;1.318;103.762;2023-03-30T17:06:18;26.00;1.00
27781;DHT22;15167;1.318;103.762;2023-03-30T17:08:47;26.00;1.00
27781;DHT22;15167;1.318;103.762;2023-03-30T17:11:13;26.10;1.00
27781;DHT22;15167;1.318;103.762;2023-03-30T17:13:40;26.20;1.00
27781;DHT22;15167;1.318;103.762;2023-03-30T17:16:10;26.10;1.00
27781;DHT22;15167;1.318;103.762;2023-03-30T17:18:36;26.10;1.00
27781;DHT22;15167;1.318;103.762;2023-03-30T17:21:02;26.10;1.00
27781;DHT22;15167;1.318;103.762;2023-03-30T17:23:29;26.10;1.00
27781;DHT22;15167;1.318;103.762;2023-03-30T17:25:57;26.00;6.90
27781;DHT22;15167;1.318;103.762;2023-03-30T17:28:24;26.00;10.90
27781;DHT22;15167;1.318;103.762;2023-03-30T17:30:53;26.00;17.70
27781;DHT22;15167;1.318;103.762;2023-03-30T17:33:19;26.00;18.30
27781;DHT22;15167;1.318;103.762;2023-03-30T17:35:53;26.00;25.50
27781;DHT22;15167;1.318;103.762;2023-03-30T17:38:19;26.00;33.40
27781;DHT22;15167;1.318;103.762;2023-03-30T17:40:46;26.00;34.80
27781;DHT22;15167;1.318;103.762;2023-03-30T17:43:13;26.00;32.80
27781;DHT22;15167;1.318;103.762;2023-03-30T17:45:39;26.10;34.40
27781;DHT22;15167;1.318;103.762;2023-03-30T17:48:09;26.10;37.10
27781;DHT22;15167;1.318;103.762;2023-03-30T17:50:37;26.10;41.40
27781;DHT22;15167;1.318;103.762;2023-03-30T17:53:04;26.10;45.60
27781;DHT22;15167;1.318;103.762;2023-03-30T17:55:31;26.00;45.90
27781;DHT22;15167;1.318;103.762;2023-03-30T17:57:58;25.90;61.30
27781;DHT22;15167;1.318;103.762;2023-03-30T18:00:27;25.80;58.80
27781;DHT22;15167;1.318;103.762;2023-03-30T18:02:54;25.80;66.00
27781;DHT22;15167;1.318;103.762;2023-03-30T18:05:22;25.80;88.60
27781;DHT22;15167;1.318;103.762;2023-03-30T18:07:48;25.70;98.90
27781;DHT22;15167;1.318;103.762;2023-03-30T18:10:25;25.70;99.90
27781;DHT22;15167;1.318;103.762;2023-03-30T18:12:51;25.70;99.90
27781;DHT22;15167;1.318;103.762;2023-03-30T18:15:19;25.60;99.90
27781;DHT22;15167;1.318;103.762;2023-03-30T18:17:46;25.60;99.90
27781;DHT22;15167;1.318;103.762;2023-03-30T18:20:22;25.60;99.90
27781;DHT22;15167;1.318;103.762;2023-03-30T18:22:49;25.60;99.90
27781;DHT22;15167;1.318;103.762;2023-03-30T18:25:16;25.50;99.90